Time;durP1;ratioP1;P1;durP2;ratioP2;P2;SDS_P1;SDS_P2;PMS_P1;PMS_P2;Temp;Humidity;BMP_temperature;BMP_pressure;BME280_temperature;BME280_humidity;BME280_pressure;Samples;Min_cycle;Max_cycle;Signal;HPM_P1;HPM_P2
2020/12/05 00:01:26;;;;;;;10.57;5.90;;;4.20;99.90;;;4.95;100.00;95651.78;5064293;28;20472;-82
2020/12/05 00:03:53;;;;;;;9.03;5.80;;;4.20;99.90;;;4.93;100.00;95663.31;5060947;28;20457;-82
2020/12/05 00:06:22;;;;;;;10.90;5.80;;;4.20;99.90;;;4.93;100.00;95652.97;5060334;28;20582;-82
2020/12/05 00:08:50;;;;;;;13.97;6.80;;;4.20;99.90;;;4.97;100.00;95639.38;5062115;28;20530;-82
2020/12/05 00:11:26;;;;;;;8.07;5.63;;;4.20;99.90;;;4.97;100.00;95654.94;5064252;28;20498;-82
2020/12/05 00:13:53;;;;;;;8.67;5.43;;;4.20;99.90;;;4.90;100.00;95653.38;5066283;28;20480;-83
2020/12/05 00:16:21;;;;;;;9.20;5.60;;;4.20;99.90;;;4.93;100.00;95660.72;5066065;28;20503;-82
2020/12/05 00:18:53;;;;;;;7.70;5.90;;;4.30;99.90;;;4.90;100.00;95654.19;5066261;28;20701;-82
2020/12/05 00:21:21;;;;;;;9.80;6.10;;;4.30;99.90;;;4.93;100.00;95669.28;5067639;28;20472;-82
2020/12/05 00:23:49;;;;;;;10.20;6.77;;;4.20;99.90;;;5.00;100.00;95680.41;5064760;28;20463;-82
2020/12/05 00:26:19;;;;;;;8.30;6.00;;;4.30;99.90;;;5.02;100.00;95675.81;5066981;28;20463;-82
2020/12/05 00:28:47;;;;;;;9.30;6.27;;;4.30;99.90;;;5.04;100.00;95684.16;5068852;28;20946;-82
2020/12/05 00:31:16;;;;;;;10.40;6.10;;;4.30;99.90;;;5.01;100.00;95682.00;5066029;28;20521;-82
2020/12/05 00:33:44;;;;;;;14.27;8.03;;;4.30;99.90;;;5.08;100.00;95681.94;5067310;28;20537;-82
2020/12/05 00:36:15;;;;;;;16.73;9.40;;;4.40;99.90;;;5.11;100.00;95689.28;5065577;28;20496;-83
2020/12/05 00:38:44;;;;;;;18.57;11.10;;;4.50;99.90;;;5.08;100.00;95700.06;5066051;28;20976;-82
2020/12/05 00:41:16;;;;;;;21.80;10.70;;;4.50;99.90;;;5.08;100.00;95694.88;5062921;28;20471;-83
2020/12/05 00:43:45;;;;;;;17.10;11.40;;;4.50;99.90;;;5.11;100.00;95707.41;5067260;28;20495;-83
2020/12/05 00:46:12;;;;;;;24.63;11.93;;;4.50;99.90;;;5.08;100.00;95700.06;5063799;28;20475;-82
2020/12/05 00:48:40;;;;;;;24.83;11.33;;;4.40;99.90;;;5.11;100.00;95702.22;5066412;28;20464;-83
2020/12/05 00:51:10;;;;;;;28.70;12.80;;;4.40;99.90;;;5.12;100.00;95715.97;5061170;28;20460;-82
2020/12/05 00:53:37;;;;;;;24.13;13.33;;;4.40;99.90;;;5.10;100.00;95720.59;5065812;28;20467;-82
2020/12/05 00:56:05;;;;;;;27.87;13.20;;;4.40;99.90;;;5.07;100.00;95716.59;5065037;28;20491;-82
2020/12/05 00:58:35;;;;;;;26.33;13.13;;;4.40;99.90;;;5.05;100.00;95719.41;5063752;28;20468;-82
2020/12/05 01:01:05;;;;;;;24.03;13.27;;;4.40;99.90;;;5.02;100.00;95719.84;5066673;28;20490;-82
2020/12/05 01:03:33;;;;;;;23.93;12.83;;;4.40;99.90;;;5.02;100.00;95734.59;5065903;28;21327;-82
2020/12/05 01:06:00;;;;;;;28.53;13.53;;;4.40;99.90;;;5.03;100.00;95731.00;5066596;28;20888;-82
2020/12/05 01:08:28;;;;;;;23.97;13.13;;;4.40;99.90;;;5.06;100.00;95730.56;5065614;28;20460;-82
2020/12/05 01:10:55;;;;;;;29.47;12.93;;;4.60;99.90;;;5.02;100.00;95744.94;5064886;28;20507;-82
2020/12/05 01:13:23;;;;;;;27.57;12.30;;;4.60;99.90;;;5.02;100.00;95750.13;5064890;28;20513;-82
2020/12/05 01:15:50;;;;;;;25.27;13.30;;;4.50;99.90;;;5.02;100.00;95750.91;5059568;28;20515;-82
2020/12/05 01:18:19;;;;;;;26.03;13.40;;;4.60;99.90;;;4.99;100.00;95758.31;5066589;28;20455;-82
2020/12/05 01:20:47;;;;;;;25.20;13.73;;;4.50;99.90;;;4.98;100.00;95759.31;5065018;28;20459;-82
2020/12/05 01:23:15;;;;;;;27.20;13.00;;;4.50;99.90;;;4.98;100.00;95759.31;5065788;28;20478;-83
2020/12/05 01:25:42;;;;;;;24.83;13.43;;;4.50;99.90;;;4.93;100.00;95757.31;5064897;28;20464;-83
2020/12/05 01:28:10;;;;;;;29.53;12.20;;;4.40;99.90;;;4.90;100.00;95762.13;5066190;28;20487;-82
2020/12/05 01:30:37;;;;;;;23.33;12.63;;;4.30;99.90;;;4.92;100.00;95771.28;5063968;28;20460;-83
2020/12/05 01:33:05;;;;;;;23.57;11.67;;;4.30;99.90;;;4.95;100.00;95770.88;5064800;28;20464;-82
2020/12/05 01:35:33;;;;;;;25.37;14.50;;;4.30;99.90;;;4.95;100.00;95770.06;5066654;28;20618;-82
2020/12/05 01:38:00;;;;;;;28.23;13.10;;;4.30;99.90;;;4.94;100.00;95773.66;5063594;28;20495;-82
2020/12/05 01:40:28;;;;;;;23.07;12.00;;;4.20;99.90;;;4.94;100.00;95776.25;5063608;28;21170;-82
2020/12/05 01:42:56;;;;;;;26.73;13.47;;;4.20;99.90;;;4.96;100.00;95777.63;5066969;28;20456;-82
2020/12/05 01:45:23;;;;;;;25.53;13.37;;;4.20;99.90;;;4.95;100.00;95780.44;5062437;28;20476;-82
2020/12/05 01:47:51;;;;;;;22.37;13.10;;;4.30;99.90;;;4.87;100.00;95775.50;5062093;28;20480;-82
2020/12/05 01:50:19;;;;;;;21.87;12.53;;;4.10;99.90;;;4.86;100.00;95779.09;5064947;28;20464;-82
2020/12/05 01:52:49;;;;;;;25.67;12.43;;;4.10;99.90;;;4.84;100.00;95779.28;5060962;28;20464;-82
2020/12/05 01:55:17;;;;;;;27.27;12.70;;;4.10;99.90;;;4.76;100.00;95776.13;5065525;28;20879;-83
2020/12/05 01:57:45;;;;;;;26.80;13.50;;;4.00;99.90;;;4.73;100.00;95776.56;5065166;28;20576;-82
2020/12/05 02:00:12;;;;;;;26.53;12.10;;;3.90;99.90;;;4.73;100.00;95781.72;5060337;28;20517;-82
2020/12/05 02:02:40;;;;;;;27.83;13.10;;;3.90;99.90;;;4.81;100.00;95789.28;5062440;28;20472;-82
2020/12/05 02:05:17;;;;;;;17.87;11.20;;;4.10;99.90;;;4.75;100.00;95785.72;5065336;28;20476;-82
2020/12/05 02:07:52;;;;;;;25.23;12.87;;;4.00;99.90;;;4.77;100.00;95790.69;5064441;28;20464;-82
2020/12/05 02:10:28;;;;;;;26.70;13.07;;;4.00;99.90;;;4.84;100.00;95789.66;5063139;28;20471;-82
2020/12/05 02:13:04;;;;;;;21.07;10.53;;;4.10;99.90;;;4.80;100.00;95798.81;5065009;28;20960;-82
2020/12/05 02:15:34;;;;;;;25.00;12.13;;;4.10;99.90;;;4.87;100.00;95796.19;5062172;28;20468;-82
2020/12/05 02:18:06;;;;;;;24.60;12.37;;;4.20;99.90;;;4.87;100.00;95794.41;5062343;28;20518;-82
2020/12/05 02:20:36;;;;;;;25.27;13.03;;;4.20;99.90;;;4.88;100.00;95801.19;5064149;28;20455;-82
2020/12/05 02:23:11;;;;;;;29.57;13.77;;;4.20;99.90;;;4.93;100.00;95798.75;5064622;28;20473;-82
2020/12/05 02:25:42;;;;;;;31.50;14.80;;;4.20;99.90;;;4.94;100.00;95796.97;5065706;28;20454;-82
2020/12/05 02:28:13;;;;;;;29.90;14.40;;;4.20;99.90;;;4.96;100.00;95797.56;5062964;28;20957;-82
2020/12/05 02:30:41;;;;;;;30.73;14.47;;;4.30;99.90;;;4.96;100.00;95803.53;5061575;28;20452;-82
2020/12/05 02:33:09;;;;;;;25.10;12.87;;;4.30;99.90;;;4.99;100.00;95810.09;5062349;28;20977;-82
2020/12/05 02:35:36;;;;;;;30.80;14.30;;;4.40;99.90;;;5.00;100.00;95803.91;5065645;28;20545;-83
2020/12/05 02:38:13;;;;;;;30.40;13.87;;;4.40;99.90;;;5.02;100.00;95812.28;5066241;28;20479;-82
2020/12/05 02:40:41;;;;;;;34.37;15.63;;;4.40;99.90;;;5.02;100.00;95807.09;5063870;28;20474;-82
2020/12/05 02:43:08;;;;;;;31.63;15.70;;;4.50;99.90;;;5.01;100.00;95800.31;5065480;28;21065;-82
2020/12/05 02:45:37;;;;;;;25.10;14.17;;;4.50;99.90;;;5.01;100.00;95800.31;5061479;28;20965;-82
2020/12/05 02:48:04;;;;;;;32.53;15.73;;;4.40;99.90;;;5.00;100.00;95809.88;5064974;28;20984;-82
2020/12/05 02:50:32;;;;;;;33.50;15.30;;;4.40;99.90;;;5.00;100.00;95822.03;5065000;28;20460;-82
2020/12/05 02:53:00;;;;;;;25.80;13.17;;;4.30;99.90;;;4.96;100.00;95823.47;5061521;28;20472;-82
2020/12/05 02:55:28;;;;;;;28.47;13.47;;;4.30;99.90;;;4.92;100.00;95832.66;5063028;28;20484;-82
2020/12/05 02:57:55;;;;;;;32.80;14.00;;;4.20;99.90;;;4.91;100.00;95838.81;5067741;28;21098;-82
2020/12/05 03:00:23;;;;;;;24.87;13.73;;;4.10;99.90;;;4.95;100.00;95842.59;5069431;28;20448;-82
2020/12/05 03:02:51;;;;;;;28.83;14.00;;;4.30;99.90;;;4.95;100.00;95837.41;5066689;28;20492;-82
2020/12/05 03:05:19;;;;;;;26.90;12.23;;;4.40;99.90;;;4.96;100.00;95833.81;5066267;28;20471;-82
2020/12/05 03:07:47;;;;;;;26.50;13.77;;;4.40;99.90;;;5.02;100.00;95833.00;5067509;28;20468;-82
2020/12/05 03:10:15;;;;;;;25.50;14.40;;;4.50;99.90;;;5.01;100.00;95836.56;5066916;28;20464;-82
2020/12/05 03:12:43;;;;;;;28.43;13.30;;;4.40;99.90;;;5.01;100.00;95852.91;5067807;28;20944;-82
2020/12/05 03:15:11;;;;;;;24.83;13.30;;;4.30;99.90;;;4.98;100.00;95858.50;5066848;28;20881;-82
2020/12/05 03:17:38;;;;;;;26.87;13.27;;;4.30;99.90;;;4.97;100.00;95854.31;5063367;28;20503;-82
2020/12/05 03:20:06;;;;;;;29.90;14.70;;;4.40;99.90;;;4.97;100.00;95866.47;5066935;28;20476;-83
2020/12/05 03:22:34;;;;;;;28.27;13.33;;;4.40;99.90;;;4.95;100.00;95864.09;5066621;28;20807;-82
2020/12/05 03:25:02;;;;;;;29.00;15.10;;;4.40;99.90;;;4.98;100.00;95873.25;5064676;28;20448;-82
2020/12/05 03:27:29;;;;;;;28.57;13.77;;;4.40;99.90;;;4.98;100.00;95879.22;5067208;28;20507;-82
2020/12/05 03:29:58;;;;;;;28.13;12.20;;;4.40;99.90;;;4.91;100.00;95893.97;5067499;28;20465;-81
2020/12/05 03:32:28;;;;;;;24.97;13.33;;;4.20;99.90;;;4.88;100.00;95896.19;5067907;28;20491;-82
2020/12/05 03:34:56;;;;;;;25.37;14.27;;;4.20;99.90;;;4.92;100.00;95903.34;5067715;28;20895;-82
2020/12/05 03:37:24;;;;;;;32.80;13.87;;;4.20;99.90;;;4.95;100.00;95915.88;5067762;28;20491;-82
2020/12/05 03:39:53;;;;;;;24.57;13.37;;;4.30;99.90;;;4.95;100.00;95908.13;5068333;28;20482;-82
2020/12/05 03:42:21;;;;;;;29.27;15.10;;;4.30;99.90;;;4.95;100.00;95905.53;5067354;28;20952;-82
2020/12/05 03:44:48;;;;;;;28.40;13.70;;;4.30;99.90;;;4.98;100.00;95912.09;5066096;28;20488;-82
2020/12/05 03:47:17;;;;;;;24.60;12.80;;;4.30;99.90;;;4.97;100.00;95913.88;5065873;28;20472;-82
2020/12/05 03:49:44;;;;;;;39.13;13.40;;;4.30;99.90;;;4.93;100.00;95919.66;5067815;28;21071;-82
2020/12/05 03:52:12;;;;;;;24.70;12.80;;;4.20;99.90;;;4.95;100.00;95915.88;5066454;28;20501;-82
2020/12/05 03:54:39;;;;;;;32.70;13.87;;;4.30;99.90;;;4.95;100.00;95915.88;5065543;28;20801;-82
2020/12/05 03:57:07;;;;;;;28.00;13.50;;;4.20;99.90;;;4.91;100.00;95919.06;5067145;28;20496;-83
2020/12/05 03:59:34;;;;;;;30.07;14.17;;;4.20;99.90;;;4.92;100.00;95925.84;5068249;28;20452;-82
2020/12/05 04:02:02;;;;;;;26.60;13.10;;;4.20;99.90;;;4.86;100.00;95934.44;5068968;28;20448;-82
2020/12/05 04:04:30;;;;;;;20.57;11.67;;;4.10;99.90;;;4.91;100.00;95932.81;5068448;28;20475;-82
2020/12/05 04:06:58;;;;;;;25.67;13.43;;;4.30;99.90;;;4.93;100.00;95941.16;5065756;28;20858;-82
2020/12/05 04:09:26;;;;;;;22.73;12.07;;;4.20;99.90;;;4.95;100.00;95938.38;5064151;28;20949;-82
2020/12/05 04:11:53;;;;;;;30.57;13.03;;;4.20;99.90;;;4.89;100.00;95932.25;5067566;28;20575;-82
2020/12/05 04:14:21;;;;;;;23.63;13.07;;;4.20;99.90;;;4.94;100.00;95939.38;5066362;28;20533;-82
2020/12/05 04:16:48;;;;;;;26.93;12.00;;;4.30;99.90;;;4.95;100.00;95931.41;5063221;28;20480;-82
2020/12/05 04:19:16;;;;;;;22.57;12.07;;;4.30;99.90;;;4.97;100.00;95931.19;5067743;28;20472;-83
2020/12/05 04:21:44;;;;;;;23.20;12.10;;;4.30;99.90;;;4.98;100.00;95937.97;5065447;28;21018;-83
2020/12/05 04:24:11;;;;;;;21.67;12.47;;;4.30;99.90;;;4.96;100.00;95942.56;5067229;28;20549;-83
2020/12/05 04:26:39;;;;;;;20.97;12.60;;;4.30;99.90;;;4.97;100.00;95938.97;5062159;28;20476;-83
2020/12/05 04:29:06;;;;;;;25.30;13.57;;;4.20;99.90;;;4.95;100.00;95946.97;5064586;28;20471;-83
2020/12/05 04:31:34;;;;;;;22.37;12.03;;;4.20;99.90;;;5.00;100.00;95944.53;5064202;28;20468;-83
2020/12/05 04:34:01;;;;;;;24.97;12.40;;;4.30;99.90;;;4.99;100.00;95952.53;5066827;28;20549;-82
2020/12/05 04:36:29;;;;;;;19.03;11.87;;;4.40;99.90;;;5.01;100.00;95951.31;5065268;28;20651;-84
2020/12/05 04:38:57;;;;;;;23.23;10.63;;;4.40;99.90;;;5.03;100.00;95954.47;5065535;28;20476;-83
2020/12/05 04:41:25;;;;;;;19.00;10.73;;;4.30;99.90;;;5.04;100.00;95963.06;5066640;28;20468;-83
2020/12/05 04:43:53;;;;;;;18.70;10.90;;;4.40;99.90;;;5.03;100.00;95964.06;5064880;28;21036;-83
2020/12/05 04:46:21;;;;;;;19.90;10.27;;;4.30;99.90;;;5.01;100.00;95966.84;5066180;28;20472;-89
2020/12/05 04:48:49;;;;;;;16.00;10.17;;;4.40;99.90;;;5.03;100.00;95966.66;5066806;28;20476;-83
2020/12/05 04:51:26;;;;;;;18.80;10.50;;;4.50;99.90;;;5.01;100.00;95964.25;5063818;28;20452;-83
2020/12/05 04:53:54;;;;;;;15.50;10.00;;;4.40;99.90;;;5.00;100.00;95962.66;5065858;28;20483;-82
2020/12/05 04:56:36;;;;;;;13.70;9.63;;;4.30;99.90;;;5.01;100.00;95971.22;5067393;28;20495;-82
2020/12/05 04:59:06;;;;;;;16.97;9.70;;;4.30;99.90;;;5.02;100.00;95978.81;5067517;28;20936;-82
2020/12/05 05:01:37;;;;;;;13.23;8.70;;;4.30;99.90;;;4.97;100.00;95978.63;5066420;28;20464;-82
2020/12/05 05:04:06;;;;;;;13.90;9.30;;;4.30;99.90;;;5.00;100.00;95970.44;5066838;28;20468;-88
2020/12/05 05:06:34;;;;;;;15.97;10.10;;;4.30;99.90;;;5.02;100.00;95978.00;5063401;28;20836;-83
2020/12/05 05:09:02;;;;;;;13.43;9.30;;;4.30;99.90;;;5.02;100.00;95993.56;5066490;28;20451;-83
2020/12/05 05:11:41;;;;;;;16.37;9.87;;;4.30;99.90;;;5.01;100.00;96004.91;5066907;28;20456;-83
2020/12/05 05:14:13;;;;;;;17.90;9.70;;;4.30;99.90;;;5.00;100.00;96011.06;5063305;28;20468;-82
2020/12/05 05:16:46;;;;;;;17.07;9.17;;;4.30;99.90;;;4.97;100.00;96011.47;5062793;28;20460;-83
2020/12/05 05:19:23;;;;;;;14.37;8.90;;;4.30;99.90;;;4.99;100.00;96025.03;5063581;28;20825;-83
2020/12/05 05:21:51;;;;;;;15.20;8.47;;;4.30;99.90;;;5.00;100.00;96042.16;5070148;28;20513;-89
2020/12/05 05:24:21;;;;;;;21.23;12.30;;;4.30;99.90;;;5.04;100.00;96058.88;5060850;28;20471;-83
2020/12/05 05:27:01;;;;;;;14.23;9.60;;;4.40;99.90;;;5.05;100.00;96073.44;5063714;28;20479;-82
2020/12/05 05:29:33;;;;;;;18.73;10.57;;;4.40;99.90;;;5.05;100.00;96073.44;5065300;28;20956;-83
2020/12/05 05:32:05;;;;;;;16.13;8.90;;;4.40;99.90;;;5.02;100.00;96079.81;5063831;28;20953;-83
2020/12/05 05:34:33;;;;;;;15.23;9.33;;;4.50;99.90;;;5.01;100.00;96085.97;5062179;28;20511;-83
2020/12/05 05:37:01;;;;;;;13.37;8.17;;;4.40;99.90;;;5.04;100.00;96089.97;5064580;28;20488;-83
2020/12/05 05:39:29;;;;;;;13.37;7.93;;;4.40;99.90;;;5.02;100.00;96092.75;5068990;28;20449;-83
2020/12/05 05:41:58;;;;;;;14.07;8.97;;;4.50;99.90;;;5.04;100.00;96101.13;5068787;28;20435;-82
2020/12/05 05:44:27;;;;;;;13.53;8.13;;;4.40;99.90;;;5.02;100.00;96097.16;5068041;28;20449;-82
2020/12/05 05:46:56;;;;;;;13.20;8.80;;;4.40;99.90;;;5.02;100.00;96117.88;5068425;28;20448;-83
2020/12/05 05:49:30;;;;;;;12.50;7.50;;;4.40;99.90;;;5.01;100.00;96113.66;5065888;28;20494;-82
2020/12/05 05:51:59;;;;;;;10.90;7.27;;;4.40;99.90;;;5.05;100.00;96113.09;5067957;28;20444;-83
2020/12/05 05:54:29;;;;;;;10.13;7.20;;;4.50;99.90;;;5.08;100.00;96101.50;5067203;28;20464;-83
2020/12/05 05:57:16;;;;;;;13.17;7.07;;;4.50;99.90;;;5.07;100.00;96099.91;5067890;28;20562;-82
2020/12/05 05:59:45;;;;;;;8.17;6.30;;;4.40;99.90;;;5.07;100.00;96105.09;5067911;28;20456;-82
2020/12/05 06:02:16;;;;;;;10.03;7.10;;;4.40;99.90;;;5.05;100.00;96096.75;5068324;28;20445;-83
2020/12/05 06:04:46;;;;;;;8.97;6.80;;;4.40;99.90;;;5.06;100.00;96108.69;5068342;28;20451;-83
2020/12/05 06:07:17;;;;;;;9.70;7.07;;;4.40;99.90;;;5.08;100.00;96110.09;5067519;28;20493;-82
2020/12/05 06:09:50;;;;;;;9.50;5.93;;;4.30;99.90;;;5.06;100.00;96112.09;5067142;28;20506;-83
2020/12/05 06:12:21;;;;;;;9.60;5.73;;;4.50;99.90;;;5.05;100.00;96113.09;5067805;28;20529;-82
2020/12/05 06:14:51;;;;;;;8.07;6.30;;;4.50;99.90;;;5.07;100.00;96120.63;5067403;28;20949;-83
2020/12/05 06:17:21;;;;;;;8.47;5.73;;;4.40;99.90;;;5.07;100.00;96118.03;5067226;28;20492;-83
2020/12/05 06:19:52;;;;;;;7.33;5.67;;;4.40;99.90;;;5.09;100.00;96118.66;5066873;28;20433;-83
2020/12/05 06:22:36;;;;;;;7.60;6.10;;;4.40;99.90;;;5.07;100.00;96120.63;5068904;28;20555;-83
2020/12/05 06:25:11;;;;;;;8.27;5.63;;;4.40;99.90;;;5.06;100.00;96122.47;5067501;28;20437;-83
2020/12/05 06:27:43;;;;;;;9.77;6.20;;;4.30;99.90;;;5.06;100.00;96119.06;5067790;28;20456;-83
2020/12/05 06:30:12;;;;;;;7.23;5.90;;;4.30;99.90;;;5.10;100.00;96135.81;5071315;28;20447;-82
2020/12/05 06:32:46;;;;;;;6.73;5.30;;;4.40;99.90;;;5.08;100.00;96142.97;5072103;28;20455;-83
2020/12/05 06:35:34;;;;;;;8.60;6.60;;;4.40;99.90;;;5.07;100.00;96134.38;5070846;28;20478;-83
2020/12/05 06:38:04;;;;;;;11.97;6.40;;;4.40;99.90;;;5.10;100.00;96135.81;5071510;28;21004;-83
2020/12/05 06:40:40;;;;;;;9.60;6.37;;;4.50;99.90;;;5.06;100.00;96139.78;5072192;28;20503;-82
2020/12/05 06:43:14;;;;;;;9.27;6.17;;;4.40;99.90;;;5.02;100.00;96151.53;5072273;28;20514;-82
2020/12/05 06:45:43;;;;;;;8.50;5.83;;;4.30;99.90;;;5.01;100.00;96152.53;5071743;28;20951;-83
2020/12/05 06:48:33;;;;;;;7.90;6.30;;;4.30;99.90;;;5.01;100.00;96160.28;5071725;28;20493;-82
2020/12/05 06:51:01;;;;;;;16.80;6.60;;;4.30;99.90;;;4.96;100.00;96162.69;5070968;28;20444;-82
2020/12/05 06:53:34;;;;;;;8.93;6.20;;;4.20;99.90;;;4.97;100.00;96174.63;5071708;28;20468;-82
2020/12/05 06:56:17;;;;;;;9.87;6.20;;;4.20;99.90;;;5.01;100.00;96187.00;5071474;28;20448;-83
2020/12/05 06:58:57;;;;;;;9.20;6.50;;;4.30;99.90;;;5.04;100.00;96196.94;5070705;28;20488;-83
2020/12/05 07:01:30;;;;;;;10.87;6.93;;;4.30;99.90;;;5.07;100.00;96203.53;5070348;28;20455;-83
2020/12/05 07:04:21;;;;;;;13.47;6.90;;;4.40;99.90;;;5.12;100.00;96216.69;5070641;28;20452;-83
2020/12/05 07:06:49;;;;;;;9.53;6.87;;;4.40;99.90;;;5.12;100.00;96221.88;5070766;28;20436;-83
2020/12/05 07:09:17;;;;;;;9.73;7.03;;;4.50;99.90;;;5.13;100.00;96223.47;5071269;28;20486;-82
2020/12/05 07:11:44;;;;;;;10.90;6.37;;;4.50;99.90;;;5.14;100.00;96227.63;5071853;28;20444;-83
2020/12/05 07:14:26;;;;;;;10.13;6.57;;;4.50;99.90;;;5.14;100.00;96227.63;5072172;28;20493;-83
2020/12/05 07:16:56;;;;;;;7.97;6.33;;;4.50;99.90;;;5.07;100.00;96227.63;5071217;28;20829;-82
2020/12/05 07:19:26;;;;;;;8.50;6.17;;;4.50;99.90;;;5.08;100.00;96236.22;5071635;28;20471;-82
2020/12/05 07:21:53;;;;;;;9.50;6.20;;;4.40;99.90;;;5.10;100.00;96239.41;5071180;28;20797;-83
2020/12/05 07:24:24;;;;;;;7.73;6.03;;;4.50;99.90;;;5.12;100.00;96247.78;5071174;28;20471;-82
2020/12/05 07:26:51;;;;;;;8.17;6.00;;;4.50;99.90;;;5.13;100.00;96244.19;5070871;28;20451;-83
2020/12/05 07:29:22;;;;;;;13.30;6.33;;;4.50;99.90;;;5.14;100.00;96243.19;5071943;28;20452;-83
2020/12/05 07:31:50;;;;;;;6.70;5.90;;;4.50;99.90;;;5.08;100.00;96256.94;5071823;28;20455;-82
2020/12/05 07:34:20;;;;;;;8.97;6.40;;;4.40;99.90;;;5.10;100.00;96248.97;5071126;28;20479;-82
2020/12/05 07:36:48;;;;;;;9.03;6.50;;;4.40;99.90;;;5.10;100.00;96248.97;5071010;28;20452;-83
2020/12/05 07:39:15;;;;;;;9.63;5.37;;;4.40;99.90;;;5.06;100.00;96249.38;5070160;28;20541;-83
2020/12/05 07:41:51;;;;;;;8.23;5.63;;;4.30;99.90;;;5.05;100.00;96246.97;5070790;28;20447;-83
2020/12/05 07:44:21;;;;;;;6.90;5.33;;;4.30;99.90;;;5.07;100.00;96244.97;5070948;28;20482;-82
2020/12/05 07:46:49;;;;;;;9.80;6.43;;;4.30;99.90;;;5.03;100.00;96244.56;5071737;28;20456;-83
2020/12/05 07:49:17;;;;;;;11.47;6.03;;;4.30;99.90;;;5.06;100.00;96253.75;5070532;28;20457;-82
2020/12/05 07:51:50;;;;;;;9.20;6.00;;;4.40;99.90;;;5.00;100.00;96259.69;5070443;28;20820;-83
2020/12/05 07:54:17;;;;;;;9.90;5.53;;;4.30;99.90;;;5.02;100.00;96262.91;5071000;28;20452;-83
2020/12/05 07:56:45;;;;;;;8.03;5.80;;;4.30;99.90;;;5.06;100.00;96277.06;5070549;28;20494;-83
2020/12/05 07:59:13;;;;;;;6.67;5.47;;;4.30;99.90;;;5.06;100.00;96290.81;5070058;28;20491;-83
2020/12/05 08:02:10;;;;;;;8.13;5.87;;;4.40;99.90;;;5.11;100.00;96303.16;5070174;28;20448;-82
2020/12/05 08:04:54;;;;;;;6.73;5.30;;;4.40;99.90;;;5.14;100.00;96310.53;5069885;28;20513;-83
2020/12/05 08:07:38;;;;;;;8.67;5.13;;;4.40;99.90;;;5.15;100.00;96319.91;5069802;28;21350;-82
2020/12/05 08:10:09;;;;;;;6.23;4.63;;;4.50;99.90;;;5.22;100.00;96325.91;5069517;28;20823;-82
2020/12/05 08:13:20;;;;;;;7.47;5.60;;;4.60;99.90;;;5.24;100.00;96323.13;5070345;28;20455;-82
2020/12/05 08:15:59;;;;;;;7.67;4.30;;;4.60;99.90;;;5.26;100.00;96321.94;5070891;28;20456;-83
2020/12/05 08:18:28;;;;;;;5.00;4.40;;;4.70;99.90;;;5.24;100.00;96323.13;5069013;28;20488;-82
2020/12/05 08:20:57;;;;;;;5.73;4.20;;;4.70;99.90;;;5.24;100.00;96323.91;5070545;28;20955;-83
2020/12/05 08:23:28;;;;;;;7.30;3.87;;;4.70;99.90;;;5.27;100.00;96320.94;5069563;28;20452;-82
2020/12/05 08:26:01;;;;;;;4.70;4.17;;;4.70;99.90;;;5.21;100.00;96319.13;5070037;28;20505;-82
2020/12/05 08:28:32;;;;;;;6.07;4.20;;;4.60;99.90;;;5.24;100.00;96321.31;5068628;28;20448;-83
2020/12/05 08:31:05;;;;;;;5.37;4.20;;;4.60;99.90;;;5.22;100.00;96315.53;5069572;28;20441;-82
2020/12/05 08:33:44;;;;;;;6.37;4.10;;;4.60;99.90;;;5.17;100.00;96314.53;5069632;28;20497;-82
2020/12/05 08:36:20;;;;;;;7.93;5.03;;;4.50;99.90;;;5.25;100.00;96322.91;5069233;28;20883;-82
2020/12/05 08:38:49;;;;;;;5.70;4.13;;;4.70;99.90;;;5.29;100.00;96326.72;5069609;28;20581;-82
2020/12/05 08:41:17;;;;;;;4.20;3.67;;;4.80;99.90;;;5.28;100.00;96325.13;5068844;28;20933;-82
2020/12/05 08:43:44;;;;;;;4.33;3.83;;;4.70;99.90;;;5.25;100.00;96325.50;5070205;28;20486;-82
2020/12/05 08:46:20;;;;;;;5.70;3.40;;;4.70;99.90;;;5.16;100.00;96324.09;5069324;28;20456;-82
2020/12/05 08:48:49;;;;;;;5.37;3.30;;;4.60;99.90;;;5.22;100.00;96325.91;5069408;28;20536;-82
2020/12/05 08:51:18;;;;;;;5.77;3.37;;;4.70;99.90;;;5.18;100.00;96322.09;5068548;28;20444;-82
2020/12/05 08:53:45;;;;;;;4.10;3.70;;;4.70;99.90;;;5.20;100.00;96325.31;5069023;28;20436;-82
2020/12/05 08:56:20;;;;;;;3.73;2.97;;;4.70;99.90;;;5.19;100.00;96346.22;5069394;28;20453;-82
2020/12/05 08:58:48;;;;;;;4.97;3.37;;;4.60;99.90;;;5.20;100.00;96346.03;5070023;28;20494;-82
2020/12/05 09:01:16;;;;;;;4.03;3.00;;;4.70;99.90;;;5.23;100.00;96335.28;5069274;28;20451;-82
2020/12/05 09:03:44;;;;;;;3.10;2.80;;;4.70;99.90;;;5.19;100.00;96344.44;5069177;28;21027;-82
2020/12/05 09:06:12;;;;;;;3.87;2.90;;;4.60;99.90;;;5.15;100.00;96365.72;5068442;28;20460;-82
2020/12/05 09:08:45;;;;;;;4.30;3.20;;;4.50;99.90;;;5.19;100.00;96370.34;5068652;28;20443;-82
2020/12/05 09:11:21;;;;;;;3.30;2.97;;;4.60;99.90;;;5.25;100.00;96373.94;5069716;28;20441;-82
2020/12/05 09:13:49;;;;;;;3.00;2.70;;;4.80;99.90;;;5.26;100.00;96378.13;5069538;28;20513;-82
2020/12/05 09:16:17;;;;;;;3.23;2.50;;;4.80;99.90;;;5.28;100.00;96394.28;5069253;28;20448;-82
2020/12/05 09:18:48;;;;;;;3.43;3.03;;;4.80;99.90;;;5.29;100.00;96394.09;5068825;28;20500;-82
2020/12/05 09:21:20;;;;;;;3.60;3.13;;;4.80;99.90;;;5.21;100.00;96385.69;5069522;28;20455;-82
2020/12/05 09:23:59;;;;;;;3.57;3.23;;;4.60;99.90;;;5.22;100.00;96388.09;5068582;28;20444;-82
2020/12/05 09:26:27;;;;;;;3.23;2.83;;;4.70;99.90;;;5.27;100.00;96396.09;5068769;28;20455;-81
2020/12/05 09:28:55;;;;;;;2.50;2.20;;;4.80;99.90;;;5.30;100.00;96392.31;5068969;28;20464;-82
2020/12/05 09:31:23;;;;;;;5.00;3.10;;;4.80;99.90;;;5.21;100.00;96376.13;5069023;28;20449;-82
2020/12/05 09:33:50;;;;;;;4.13;2.77;;;4.60;99.90;;;5.30;100.00;96376.75;5069647;28;20483;-82
2020/12/05 09:36:20;;;;;;;3.17;2.43;;;4.80;99.90;;;5.33;100.00;96369.38;5068864;28;20463;-81
2020/12/05 09:38:48;;;;;;;4.87;2.80;;;4.70;99.90;;;5.32;100.00;96378.16;5068928;28;20839;-81
2020/12/05 09:41:16;;;;;;;4.93;2.53;;;4.80;99.90;;;5.30;100.00;96371.56;5069384;28;20498;-82
2020/12/05 09:43:43;;;;;;;2.80;2.53;;;4.90;99.90;;;5.26;100.00;96378.94;5069181;28;20451;-82
2020/12/05 09:46:11;;;;;;;3.80;2.80;;;4.90;99.90;;;5.23;100.00;96384.50;5068636;28;20449;-82
2020/12/05 09:48:38;;;;;;;3.07;2.70;;;4.70;99.90;;;5.26;100.00;96389.31;5068197;28;20508;-82
2020/12/05 09:51:07;;;;;;;2.83;2.43;;;4.70;99.90;;;5.27;100.00;96390.09;5067588;28;20441;-82
2020/12/05 09:53:35;;;;;;;2.80;2.20;;;4.70;99.90;;;5.23;100.00;96415.59;5067028;28;20440;-83
2020/12/05 09:56:03;;;;;;;4.53;2.87;;;4.70;99.90;;;5.23;100.00;96413.00;5068002;28;20443;-82
2020/12/05 09:58:31;;;;;;;2.80;2.30;;;4.70;99.90;;;5.19;100.00;96416.16;5068915;28;20484;-83
2020/12/05 10:00:59;;;;;;;2.70;2.40;;;4.60;99.90;;;5.21;100.00;96412.38;5069859;28;20452;-83
2020/12/05 10:03:28;;;;;;;4.67;2.23;;;4.60;99.90;;;5.25;100.00;96418.78;5070653;28;20480;-83
2020/12/05 10:05:57;;;;;;;2.13;1.93;;;4.70;99.90;;;5.26;100.00;96401.44;5069964;28;20451;-83
2020/12/05 10:08:27;;;;;;;1.93;1.83;;;4.80;99.90;;;5.24;100.00;96378.31;5070692;28;20461;-83
2020/12/05 10:10:58;;;;;;;3.73;2.17;;;4.80;99.90;;;5.19;100.00;96359.97;5071273;28;20475;-83
2020/12/05 10:13:28;;;;;;;2.60;1.97;;;4.80;99.90;;;5.18;100.00;96355.78;5071147;28;20499;-83
2020/12/05 10:15:57;;;;;;;2.33;2.07;;;4.70;99.90;;;5.18;100.00;96360.97;5071085;28;20555;-83
2020/12/05 10:18:25;;;;;;;4.10;1.93;;;4.70;99.90;;;5.19;100.00;96352.22;5069782;28;20894;-83
2020/12/05 10:20:56;;;;;;;2.40;1.87;;;4.70;99.90;;;5.21;100.00;96352.00;5071208;28;20459;-82
2020/12/05 10:23:28;;;;;;;4.63;2.33;;;4.70;99.90;;;5.14;100.00;96358.97;5070624;28;20528;-83
2020/12/05 10:26:01;;;;;;;3.23;2.40;;;4.60;99.90;;;5.09;100.00;96356.97;5070091;28;20471;-83
2020/12/05 10:28:30;;;;;;;5.20;2.50;;;4.60;99.90;;;5.10;100.00;96350.00;5070580;28;20436;-83
2020/12/05 10:31:12;;;;;;;2.60;2.40;;;4.60;99.90;;;5.10;100.00;96368.94;5070161;28;20448;-82
2020/12/05 10:33:41;;;;;;;3.90;2.23;;;4.60;99.90;;;5.12;100.00;96351.38;5070466;28;20531;-83